Time;durP1;ratioP1;P1;durP2;ratioP2;P2;SDS_P1;SDS_P2;PMS_P1;PMS_P2;Temp;Humidity;BMP_temperature;BMP_pressure;BME280_temperature;BME280_humidity;BME280_pressure;Samples;Min_cycle;Max_cycle;Signal;HPM_P1;HPM_P2
2023/12/20 00:00:08;;;;;;;16.67;13.32;;;8.70;60.70;;;;;;349750;28;1079;-57
2023/12/20 00:00:19;;;;;;;16.67;13.70;;;8.70;60.80;;;;;;349737;28;1168;-57
2023/12/20 00:00:30;;;;;;;17.70;13.70;;;8.70;60.80;;;;;;349819;28;802;-57
2023/12/20 00:00:40;;;;;;;17.55;13.35;;;8.70;60.80;;;;;;349660;28;1640;-58
2023/12/20 00:00:51;;;;;;;17.40;12.75;;;8.70;60.80;;;;;;349755;28;1127;-58
2023/12/20 00:01:02;;;;;;;16.77;12.70;;;8.70;60.80;;;;;;349659;28;1028;-57
2023/12/20 00:01:13;;;;;;;16.75;12.73;;;8.70;60.90;;;;;;349754;28;1091;-58
2023/12/20 00:01:24;;;;;;;17.45;13.00;;;8.70;60.90;;;;;;349700;28;1020;-58
2023/12/20 00:01:34;;;;;;;17.60;12.98;;;8.70;60.90;;;;;;349789;28;1015;-58
2023/12/20 00:01:45;;;;;;;18.95;13.45;;;8.70;60.90;;;;;;349713;28;966;-58
2023/12/20 00:01:56;;;;;;;17.95;13.38;;;8.70;60.80;;;;;;349728;28;1906;-57
2023/12/20 00:02:07;;;;;;;18.53;13.93;;;8.70;60.80;;;;;;349683;28;1054;-56
2023/12/20 00:02:18;;;;;;;16.75;13.38;;;8.70;60.90;;;;;;349741;28;1035;-58
2023/12/20 00:02:28;;;;;;;17.77;13.15;;;8.70;60.80;;;;;;349817;28;1015;-57
2023/12/20 00:02:39;;;;;;;18.38;13.02;;;8.70;60.90;;;;;;349778;28;1035;-58
2023/12/20 00:02:50;;;;;;;19.00;13.23;;;8.70;60.90;;;;;;349803;28;956;-58
2023/12/20 00:03:00;;;;;;;20.13;13.67;;;8.70;60.80;;;;;;349658;28;915;-57
2023/12/20 00:03:11;;;;;;;19.25;13.90;;;8.70;60.80;;;;;;349727;28;1051;-57
2023/12/20 00:03:23;;;;;;;18.90;14.30;;;8.70;60.80;;;;;;349798;28;979;-57
2023/12/20 00:03:34;;;;;;;18.08;14.43;;;8.70;60.70;;;;;;349818;28;884;-58
2023/12/20 00:03:45;;;;;;;18.85;14.32;;;8.70;60.70;;;;;;349797;28;1019;-57
2023/12/20 00:03:56;;;;;;;18.83;14.13;;;8.70;60.70;;;;;;349723;28;987;-57
2023/12/20 00:04:06;;;;;;;18.52;13.80;;;8.70;60.70;;;;;;349802;28;1031;-57
2023/12/20 00:04:17;;;;;;;17.93;13.63;;;8.70;60.70;;;;;;349766;28;893;-57
2023/12/20 00:04:28;;;;;;;19.05;14.00;;;8.70;60.60;;;;;;349750;28;1376;-58
2023/12/20 00:04:39;;;;;;;19.35;14.25;;;8.70;60.60;;;;;;349753;28;1103;-58
2023/12/20 00:04:49;;;;;;;17.98;14.07;;;8.70;60.60;;;;;;349683;28;1046;-58
2023/12/20 00:05:00;;;;;;;17.30;13.63;;;8.60;60.60;;;;;;349807;28;884;-59
2023/12/20 00:05:11;;;;;;;17.43;13.50;;;8.70;60.60;;;;;;349763;28;916;-58
2023/12/20 00:05:22;;;;;;;18.42;13.52;;;8.60;60.60;;;;;;349783;28;932;-58
2023/12/20 00:05:33;;;;;;;16.88;13.23;;;8.60;60.60;;;;;;349743;28;1442;-57
2023/12/20 00:05:44;;;;;;;16.13;13.25;;;8.60;60.60;;;;;;349716;28;1003;-56
2023/12/20 00:05:55;;;;;;;15.45;13.25;;;8.60;60.60;;;;;;349759;28;999;-58
2023/12/20 00:06:06;;;;;;;16.30;13.68;;;8.60;60.60;;;;;;349722;28;1086;-56
2023/12/20 00:06:16;;;;;;;17.07;13.73;;;8.60;60.60;;;;;;349719;28;1811;-57
2023/12/20 00:06:27;;;;;;;17.25;13.50;;;8.60;60.60;;;;;;349793;28;840;-57
2023/12/20 00:06:38;;;;;;;17.83;13.45;;;8.60;60.60;;;;;;349683;28;1186;-57
2023/12/20 00:06:49;;;;;;;17.58;13.18;;;8.60;60.60;;;;;;349780;28;1071;-58
2023/12/20 00:07:00;;;;;;;17.75;13.27;;;8.50;60.60;;;;;;349751;28;1071;-57
2023/12/20 00:07:10;;;;;;;17.87;13.60;;;8.60;60.50;;;;;;349742;28;1024;-57
2023/12/20 00:07:21;;;;;;;16.53;13.73;;;8.60;60.50;;;;;;349774;28;1383;-57
2023/12/20 00:07:32;;;;;;;15.65;13.43;;;8.60;60.50;;;;;;349705;28;915;-57
2023/12/20 00:07:43;;;;;;;15.82;13.25;;;8.50;60.40;;;;;;349732;28;1095;-57
2023/12/20 00:07:54;;;;;;;16.00;13.02;;;8.60;60.40;;;;;;349778;28;908;-57
2023/12/20 00:08:05;;;;;;;18.17;13.55;;;8.50;60.50;;;;;;349710;28;1734;-58
2023/12/20 00:08:16;;;;;;;18.30;13.20;;;8.50;60.50;;;;;;349599;28;1167;-57
2023/12/20 00:08:27;;;;;;;19.33;13.18;;;8.50;60.50;;;;;;349772;28;1047;-57
2023/12/20 00:08:37;;;;;;;18.00;13.02;;;8.50;60.50;;;;;;349753;28;1024;-58
2023/12/20 00:08:48;;;;;;;17.25;13.40;;;8.50;60.50;;;;;;349748;28;1166;-58
2023/12/20 00:08:59;;;;;;;18.75;13.65;;;8.50;60.50;;;;;;349719;28;931;-59
2023/12/20 00:09:10;;;;;;;18.93;13.77;;;8.50;60.50;;;;;;349703;28;1274;-58
2023/12/20 00:09:20;;;;;;;18.75;13.77;;;8.50;60.50;;;;;;349767;28;822;-58
2023/12/20 00:09:31;;;;;;;16.85;13.77;;;8.50;60.50;;;;;;349792;28;900;-58
2023/12/20 00:09:42;;;;;;;16.05;13.48;;;8.50;60.50;;;;;;349654;28;1029;-56
2023/12/20 00:09:53;;;;;;;15.15;13.05;;;8.50;60.50;;;;;;349790;28;964;-56
2023/12/20 00:10:04;;;;;;;16.70;12.90;;;8.50;60.60;;;;;;349779;28;974;-57
2023/12/20 00:10:14;;;;;;;17.85;13.43;;;8.50;60.60;;;;;;349712;28;1376;-58
2023/12/20 00:10:25;;;;;;;19.40;13.88;;;8.40;60.60;;;;;;349625;28;1484;-58
2023/12/20 00:10:36;;;;;;;18.13;13.93;;;8.50;60.60;;;;;;349760;28;1054;-58
2023/12/20 00:10:47;;;;;;;18.65;14.07;;;8.50;60.70;;;;;;349760;28;1046;-58
2023/12/20 00:10:57;;;;;;;18.00;13.82;;;8.50;60.70;;;;;;349756;28;857;-57
2023/12/20 00:11:08;;;;;;;17.75;13.23;;;8.50;60.70;;;;;;349665;28;1324;-59
2023/12/20 00:11:19;;;;;;;16.20;12.70;;;8.50;60.70;;;;;;349819;28;809;-56
2023/12/20 00:11:30;;;;;;;16.13;13.00;;;8.50;60.70;;;;;;349742;28;833;-58
2023/12/20 00:11:42;;;;;;;17.02;13.90;;;8.50;60.70;;;;;;349748;28;1123;-58
2023/12/20 00:11:52;;;;;;;17.45;13.70;;;8.40;60.70;;;;;;349637;28;988;-57
2023/12/20 00:12:03;;;;;;;17.75;13.52;;;8.40;60.70;;;;;;349771;28;851;-58
2023/12/20 00:12:14;;;;;;;16.67;12.90;;;8.40;60.60;;;;;;349761;28;975;-57
2023/12/20 00:12:25;;;;;;;17.40;13.20;;;8.50;60.70;;;;;;349738;28;821;-56
2023/12/20 00:12:35;;;;;;;17.05;13.13;;;8.40;60.60;;;;;;349616;28;1024;-58
2023/12/20 00:12:46;;;;;;;17.33;13.35;;;8.40;60.60;;;;;;349751;28;1098;-57
2023/12/20 00:12:57;;;;;;;16.38;13.00;;;8.40;60.60;;;;;;349696;28;992;-57
2023/12/20 00:13:08;;;;;;;16.25;12.88;;;8.40;60.50;;;;;;349702;28;2319;-57
2023/12/20 00:13:18;;;;;;;16.07;13.00;;;8.40;60.50;;;;;;349684;28;1071;-56
2023/12/20 00:13:29;;;;;;;16.38;13.27;;;8.40;60.60;;;;;;349711;28;1026;-57
2023/12/20 00:13:40;;;;;;;16.27;13.30;;;8.40;60.50;;;;;;349756;28;987;-58
2023/12/20 00:13:51;;;;;;;16.20;12.90;;;8.40;60.60;;;;;;349780;28;987;-59
2023/12/20 00:14:02;;;;;;;16.45;12.88;;;8.40;60.60;;;;;;349700;28;976;-57
2023/12/20 00:14:13;;;;;;;16.77;12.60;;;8.40;60.60;;;;;;349798;28;814;-56
2023/12/20 00:14:23;;;;;;;16.42;12.65;;;8.40;60.70;;;;;;349795;28;983;-57
2023/12/20 00:14:34;;;;;;;16.80;13.20;;;8.40;60.70;;;;;;349758;28;896;-58
2023/12/20 00:14:45;;;;;;;16.10;13.30;;;8.40;60.70;;;;;;349686;28;931;-58
2023/12/20 00:14:56;;;;;;;17.58;13.52;;;8.40;60.70;;;;;;349682;28;1119;-56
2023/12/20 00:15:07;;;;;;;17.42;12.95;;;8.40;60.70;;;;;;349732;28;1012;-59
2023/12/20 00:15:17;;;;;;;19.20;13.15;;;8.40;60.70;;;;;;349783;28;1099;-58
2023/12/20 00:15:28;;;;;;;18.83;13.23;;;8.40;60.70;;;;;;349722;28;978;-58
2023/12/20 00:15:39;;;;;;;19.55;13.75;;;8.40;60.70;;;;;;349742;28;1099;-58
2023/12/20 00:15:50;;;;;;;17.87;13.60;;;8.30;60.70;;;;;;349762;28;999;-57
2023/12/20 00:16:00;;;;;;;17.10;13.30;;;8.40;60.70;;;;;;349787;28;957;-57
2023/12/20 00:16:11;;;;;;;16.23;13.20;;;8.40;60.70;;;;;;349647;28;1233;-57
2023/12/20 00:16:22;;;;;;;16.52;13.25;;;8.40;60.70;;;;;;349745;28;1087;-57
2023/12/20 00:16:33;;;;;;;17.67;13.20;;;8.30;60.70;;;;;;349789;28;1127;-57
2023/12/20 00:16:43;;;;;;;17.20;13.37;;;8.40;60.60;;;;;;349729;28;896;-58
2023/12/20 00:16:54;;;;;;;16.45;13.20;;;8.30;60.60;;;;;;349636;28;1222;-58
2023/12/20 00:17:05;;;;;;;16.73;13.20;;;8.30;60.60;;;;;;349702;28;1820;-58
2023/12/20 00:17:16;;;;;;;17.88;13.38;;;8.30;60.60;;;;;;349718;28;1034;-58
2023/12/20 00:17:26;;;;;;;17.23;13.40;;;8.30;60.60;;;;;;349767;28;840;-58
2023/12/20 00:17:37;;;;;;;16.83;13.37;;;8.30;60.60;;;;;;349643;28;934;-58
2023/12/20 00:17:48;;;;;;;16.92;13.18;;;8.30;60.60;;;;;;349726;28;1032;-57
2023/12/20 00:17:59;;;;;;;17.27;13.07;;;8.30;60.60;;;;;;349781;28;976;-57
2023/12/20 00:18:09;;;;;;;17.45;13.02;;;8.30;60.70;;;;;;349710;28;1802;-58
2023/12/20 00:18:20;;;;;;;18.08;12.90;;;8.30;60.70;;;;;;349600;28;2606;-57
2023/12/20 00:18:31;;;;;;;18.60;13.10;;;8.30;60.70;;;;;;349748;28;1034;-58
2023/12/20 00:18:42;;;;;;;19.27;13.15;;;8.30;60.70;;;;;;349723;28;1123;-58
2023/12/20 00:18:52;;;;;;;18.45;13.32;;;8.30;60.60;;;;;;349703;28;1067;-58
2023/12/20 00:19:03;;;;;;;17.02;12.63;;;8.30;60.60;;;;;;349694;28;956;-59
2023/12/20 00:19:14;;;;;;;16.63;12.48;;;8.30;60.60;;;;;;349706;28;1031;-58
2023/12/20 00:19:25;;;;;;;17.30;12.57;;;8.30;60.60;;;;;;349666;28;2061;-58
2023/12/20 00:19:35;;;;;;;16.90;12.88;;;8.30;60.50;;;;;;349744;28;1020;-56
2023/12/20 00:19:46;;;;;;;16.08;12.88;;;8.30;60.50;;;;;;349692;28;1079;-56
2023/12/20 00:19:57;;;;;;;16.45;12.98;;;8.30;60.50;;;;;;349699;28;979;-57
2023/12/20 00:20:08;;;;;;;16.90;12.73;;;8.30;60.50;;;;;;349752;28;891;-59
2023/12/20 00:20:19;;;;;;;16.65;12.43;;;8.30;60.40;;;;;;349732;28;972;-57
2023/12/20 00:20:30;;;;;;;15.48;12.38;;;8.30;60.40;;;;;;349684;28;1232;-58
2023/12/20 00:20:40;;;;;;;16.38;12.90;;;8.30;60.40;;;;;;349718;28;1020;-56
2023/12/20 00:20:51;;;;;;;15.73;12.67;;;8.30;60.40;;;;;;349739;28;1023;-58
2023/12/20 00:21:02;;;;;;;16.80;12.90;;;8.30;60.30;;;;;;349705;28;984;-56
2023/12/20 00:21:13;;;;;;;16.33;12.48;;;8.30;60.30;;;;;;349684;28;1015;-59
2023/12/20 00:21:24;;;;;;;16.38;12.25;;;8.30;60.30;;;;;;349644;28;1096;-57
2023/12/20 00:21:34;;;;;;;15.50;11.85;;;8.30;60.30;;;;;;349740;28;1094;-58
2023/12/20 00:21:45;;;;;;;15.30;11.65;;;8.30;60.30;;;;;;349771;28;900;-57
2023/12/20 00:21:56;;;;;;;14.80;11.90;;;8.30;60.30;;;;;;349551;28;1898;-57
2023/12/20 00:22:07;;;;;;;14.43;12.05;;;8.20;60.30;;;;;;349732;28;1015;-57
2023/12/20 00:22:17;;;;;;;15.10;12.18;;;8.30;60.30;;;;;;349720;28;1071;-57
2023/12/20 00:22:28;;;;;;;15.68;12.48;;;8.20;60.40;;;;;;349739;28;1031;-57
2023/12/20 00:22:39;;;;;;;16.02;12.60;;;8.20;60.40;;;;;;349780;28;809;-58
2023/12/20 00:22:50;;;;;;;15.47;12.77;;;8.20;60.40;;;;;;349662;28;1016;-57
2023/12/20 00:23:00;;;;;;;15.13;12.82;;;8.20;60.40;;;;;;349668;28;1431;-57
2023/12/20 00:23:11;;;;;;;15.00;12.77;;;8.20;60.30;;;;;;349735;28;1043;-57
2023/12/20 00:23:23;;;;;;;15.75;12.52;;;8.30;60.30;;;;;;349761;28;995;-58
2023/12/20 00:23:33;;;;;;;15.80;12.15;;;8.20;60.20;;;;;;349719;28;1130;-57
2023/12/20 00:23:44;;;;;;;14.90;11.87;;;8.20;60.20;;;;;;349672;28;1015;-57
2023/12/20 00:23:55;;;;;;;15.55;12.15;;;8.30;60.20;;;;;;349764;28;975;-57
2023/12/20 00:24:06;;;;;;;15.55;12.52;;;8.30;60.10;;;;;;349671;28;1528;-57
2023/12/20 00:24:17;;;;;;;15.63;12.68;;;8.30;60.10;;;;;;349749;28;1014;-57
2023/12/20 00:24:28;;;;;;;15.75;12.60;;;8.30;60.10;;;;;;349696;28;1067;-57
2023/12/20 00:24:39;;;;;;;15.52;12.43;;;8.20;60.10;;;;;;349743;28;1180;-57
2023/12/20 00:24:49;;;;;;;14.80;12.23;;;8.20;60.10;;;;;;349689;28;1082;-58
2023/12/20 00:25:00;;;;;;;14.55;11.80;;;8.20;60.10;;;;;;349714;28;1024;-58
2023/12/20 00:25:11;;;;;;;14.30;11.67;;;8.20;60.00;;;;;;349728;28;893;-58
2023/12/20 00:25:22;;;;;;;14.25;11.38;;;8.20;60.00;;;;;;349720;28;1079;-58
2023/12/20 00:25:32;;;;;;;15.80;11.80;;;8.20;60.00;;;;;;349675;28;1008;-57
2023/12/20 00:25:43;;;;;;;16.58;11.77;;;8.20;60.00;;;;;;349749;28;841;-58
2023/12/20 00:25:54;;;;;;;15.80;11.88;;;8.20;60.00;;;;;;349737;28;976;-57
2023/12/20 00:26:05;;;;;;;14.70;11.65;;;8.20;60.10;;;;;;349756;28;964;-57
2023/12/20 00:26:16;;;;;;;13.87;11.40;;;8.20;60.10;;;;;;349725;28;805;-56
2023/12/20 00:26:28;;;;;;;13.48;11.23;;;8.20;60.10;;;;;;349674;28;1071;-56
2023/12/20 00:26:38;;;;;;;13.68;11.30;;;8.20;60.10;;;;;;349752;28;1039;-58
2023/12/20 00:26:49;;;;;;;13.50;11.32;;;8.20;60.10;;;;;;349633;28;988;-58
2023/12/20 00:27:00;;;;;;;13.07;11.02;;;8.20;60.10;;;;;;349536;28;856;-58
2023/12/20 00:27:11;;;;;;;14.52;11.18;;;8.20;60.10;;;;;;349539;28;846;-58
2023/12/20 00:27:21;;;;;;;15.07;11.05;;;8.20;60.10;;;;;;349669;28;1027;-58
2023/12/20 00:27:32;;;;;;;15.00;11.00;;;8.20;60.10;;;;;;349723;28;1014;-58
2023/12/20 00:27:43;;;;;;;12.73;10.60;;;8.20;60.20;;;;;;349689;28;1121;-57
2023/12/20 00:27:54;;;;;;;13.60;11.05;;;8.10;60.20;;;;;;349771;28;968;-57
2023/12/20 00:28:04;;;;;;;14.30;11.23;;;8.20;60.20;;;;;;349632;28;1410;-57
2023/12/20 00:28:15;;;;;;;14.57;11.10;;;8.20;60.20;;;;;;349743;28;1035;-57
2023/12/20 00:28:26;;;;;;;15.13;11.20;;;8.10;60.10;;;;;;349670;28;1076;-57
2023/12/20 00:28:37;;;;;;;14.50;11.43;;;8.10;60.10;;;;;;349769;28;1616;-57
2023/12/20 00:28:48;;;;;;;14.68;11.80;;;8.20;60.10;;;;;;349703;28;887;-57
2023/12/20 00:28:59;;;;;;;14.10;11.77;;;8.10;60.10;;;;;;349701;28;1036;-57
2023/12/20 00:29:09;;;;;;;13.82;11.60;;;8.10;60.10;;;;;;349631;28;1379;-58
2023/12/20 00:29:20;;;;;;;14.60;11.30;;;8.10;60.10;;;;;;349757;28;872;-58
2023/12/20 00:29:31;;;;;;;14.32;11.27;;;8.10;60.00;;;;;;349586;28;2128;-59
2023/12/20 00:29:43;;;;;;;15.93;11.90;;;8.00;60.10;;;;;;349782;28;1095;-56
2023/12/20 00:29:53;;;;;;;15.50;12.13;;;8.10;60.20;;;;;;349641;28;1023;-57
2023/12/20 00:30:05;;;;;;;15.73;12.35;;;8.10;60.20;;;;;;349815;28;836;-57
2023/12/20 00:30:16;;;;;;;14.07;11.98;;;8.10;60.20;;;;;;349647;28;1022;-59
2023/12/20 00:30:26;;;;;;;13.75;11.93;;;8.00;60.10;;;;;;349733;28;1083;-57
2023/12/20 00:30:37;;;;;;;13.60;11.60;;;8.00;60.20;;;;;;349641;28;1056;-57
2023/12/20 00:30:48;;;;;;;14.38;12.07;;;8.00;60.20;;;;;;349727;28;987;-57
2023/12/20 00:30:59;;;;;;;15.57;12.20;;;8.10;60.20;;;;;;349677;28;1086;-59
2023/12/20 00:31:09;;;;;;;17.00;12.30;;;8.00;60.20;;;;;;349737;28;1047;-58
2023/12/20 00:31:20;;;;;;;17.65;12.00;;;8.00;60.20;;;;;;349633;28;1016;-59
2023/12/20 00:31:31;;;;;;;17.37;12.13;;;8.00;60.20;;;;;;349747;28;1042;-58
2023/12/20 00:31:42;;;;;;;16.67;12.32;;;8.00;60.20;;;;;;349611;28;2088;-58
2023/12/20 00:31:52;;;;;;;17.73;12.52;;;8.00;60.30;;;;;;349765;28;939;-58
2023/12/20 00:32:04;;;;;;;16.73;12.13;;;8.00;60.30;;;;;;349597;28;1016;-58
2023/12/20 00:32:15;;;;;;;17.25;12.15;;;8.00;60.20;;;;;;349675;28;984;-58
2023/12/20 00:32:25;;;;;;;15.82;12.15;;;8.00;60.20;;;;;;349682;28;1028;-58
2023/12/20 00:32:36;;;;;;;17.13;12.20;;;8.00;60.30;;;;;;349725;28;837;-57
2023/12/20 00:32:47;;;;;;;15.88;11.77;;;8.00;60.30;;;;;;349743;28;880;-58
2023/12/20 00:32:58;;;;;;;16.30;11.80;;;8.00;60.30;;;;;;349639;28;1046;-57
2023/12/20 00:33:09;;;;;;;15.37;12.00;;;8.00;60.40;;;;;;349650;28;1111;-58
2023/12/20 00:33:19;;;;;;;15.68;12.10;;;8.00;60.40;;;;;;349732;28;1090;-58
2023/12/20 00:33:30;;;;;;;14.95;12.35;;;8.00;60.40;;;;;;349630;28;1162;-57
2023/12/20 00:33:43;;;;;;;15.02;12.40;;;8.00;60.40;;;;;;349707;28;992;-57
2023/12/20 00:33:54;;;;;;;14.77;12.48;;;8.00;60.40;;;;;;349743;28;1036;-58
2023/12/20 00:34:05;;;;;;;15.32;12.25;;;8.00;60.30;;;;;;349646;28;1479;-58
2023/12/20 00:34:16;;;;;;;14.77;12.13;;;8.00;60.30;;;;;;349694;28;841;-58
2023/12/20 00:34:26;;;;;;;14.52;12.10;;;8.00;60.30;;;;;;349686;28;1015;-57
2023/12/20 00:34:37;;;;;;;14.77;12.23;;;8.00;60.40;;;;;;349651;28;1038;-57
2023/12/20 00:34:48;;;;;;;15.63;12.45;;;8.00;60.40;;;;;;349697;28;1007;-58
2023/12/20 00:34:59;;;;;;;15.10;12.10;;;8.00;60.40;;;;;;349760;28;1023;-59
2023/12/20 00:35:09;;;;;;;14.35;11.65;;;7.90;60.40;;;;;;349690;28;868;-58
2023/12/20 00:35:20;;;;;;;14.95;11.32;;;8.00;60.40;;;;;;349664;28;1078;-58
2023/12/20 00:35:31;;;;;;;15.27;11.43;;;8.00;60.40;;;;;;349707;28;1059;-57
2023/12/20 00:35:41;;;;;;;15.45;11.95;;;8.00;60.40;;;;;;349700;28;984;-59
2023/12/20 00:35:52;;;;;;;16.15;12.63;;;7.90;60.40;;;;;;349736;28;869;-57
2023/12/20 00:36:03;;;;;;;15.98;12.65;;;7.90;60.40;;;;;;349676;28;1099;-59
2023/12/20 00:36:14;;;;;;;15.55;12.77;;;7.90;60.50;;;;;;349612;28;1055;-57
2023/12/20 00:36:25;;;;;;;14.45;12.40;;;7.90;60.50;;;;;;349746;28;817;-58
2023/12/20 00:36:36;;;;;;;14.17;12.27;;;7.90;60.60;;;;;;349685;28;1670;-57
2023/12/20 00:36:47;;;;;;;13.20;11.48;;;7.90;60.60;;;;;;349650;28;1137;-57
2023/12/20 00:36:58;;;;;;;13.90;11.60;;;7.90;60.60;;;;;;349719;28;1449;-58
2023/12/20 00:37:08;;;;;;;15.33;12.07;;;7.90;60.60;;;;;;349676;28;964;-57
2023/12/20 00:37:19;;;;;;;16.20;12.55;;;7.90;60.70;;;;;;349649;28;971;-57
2023/12/20 00:37:30;;;;;;;15.13;12.48;;;7.90;60.70;;;;;;349720;28;1182;-57
2023/12/20 00:37:41;;;;;;;14.30;12.38;;;7.90;60.70;;;;;;349736;28;1162;-58
2023/12/20 00:37:52;;;;;;;15.25;12.38;;;7.90;60.70;;;;;;349700;28;1015;-58
2023/12/20 00:38:04;;;;;;;15.70;12.35;;;7.80;60.60;;;;;;349668;28;1486;-57
2023/12/20 00:38:15;;;;;;;17.48;12.63;;;7.90;60.60;;;;;;349575;28;1159;-57
2023/12/20 00:38:26;;;;;;;21.03;12.80;;;7.90;60.60;;;;;;349717;28;1078;-57
2023/12/20 00:38:37;;;;;;;21.37;13.00;;;7.80;60.60;;;;;;349767;28;1078;-56
2023/12/20 00:38:48;;;;;;;18.20;12.43;;;7.90;60.60;;;;;;349655;28;996;-58
2023/12/20 00:38:59;;;;;;;16.17;12.32;;;7.80;60.60;;;;;;349730;28;1050;-58
2023/12/20 00:39:10;;;;;;;14.65;11.90;;;7.80;60.50;;;;;;349654;28;1013;-59
2023/12/20 00:39:20;;;;;;;14.43;11.90;;;7.80;60.60;;;;;;349761;28;924;-58
2023/12/20 00:39:32;;;;;;;15.20;12.18;;;7.80;60.60;;;;;;349643;28;1103;-57
2023/12/20 00:39:43;;;;;;;15.43;12.25;;;7.80;60.50;;;;;;349677;28;1648;-59
2023/12/20 00:39:54;;;;;;;14.95;12.07;;;7.80;60.50;;;;;;349748;28;912;-56
2023/12/20 00:40:06;;;;;;;14.65;11.52;;;7.80;60.50;;;;;;349706;28;1003;-58
2023/12/20 00:40:16;;;;;;;15.50;11.98;;;7.80;60.50;;;;;;349741;28;836;-57
2023/12/20 00:40:27;;;;;;;16.58;12.23;;;7.80;60.50;;;;;;349677;28;1047;-57
2023/12/20 00:40:38;;;;;;;16.40;12.63;;;7.80;60.50;;;;;;349723;28;991;-58
2023/12/20 00:40:49;;;;;;;15.18;12.30;;;7.80;60.50;;;;;;349729;28;901;-58
2023/12/20 00:41:00;;;;;;;14.13;12.10;;;7.80;60.50;;;;;;349628;28;1051;-58
2023/12/20 00:41:11;;;;;;;14.63;11.90;;;7.80;60.60;;;;;;349739;28;849;-57
2023/12/20 00:41:21;;;;;;;14.68;12.05;;;7.80;60.60;;;;;;349671;28;903;-58
2023/12/20 00:41:32;;;;;;;15.43;12.25;;;7.80;60.60;;;;;;349705;28;1020;-58
2023/12/20 00:41:43;;;;;;;15.47;12.30;;;7.80;60.60;;;;;;349698;28;1023;-58
2023/12/20 00:41:54;;;;;;;15.95;12.23;;;7.70;60.60;;;;;;349558;28;2147;-58
2023/12/20 00:42:05;;;;;;;15.43;12.13;;;7.80;60.60;;;;;;349719;28;1019;-57
2023/12/20 00:42:16;;;;;;;15.65;12.35;;;7.80;60.60;;;;;;349721;28;1303;-57
2023/12/20 00:42:26;;;;;;;14.90;12.35;;;7.80;60.60;;;;;;349636;28;1841;-57
2023/12/20 00:42:37;;;;;;;15.32;12.60;;;7.80;60.70;;;;;;349791;28;951;-57
2023/12/20 00:42:48;;;;;;;15.10;12.30;;;7.80;60.70;;;;;;349732;28;1035;-57
2023/12/20 00:42:59;;;;;;;16.20;11.95;;;7.80;60.70;;;;;;349676;28;1040;-56
2023/12/20 00:43:10;;;;;;;15.70;11.70;;;7.80;60.70;;;;;;349669;28;1032;-58
2023/12/20 00:43:20;;;;;;;16.23;11.83;;;7.70;60.70;;;;;;349739;28;1082;-57
2023/12/20 00:43:31;;;;;;;15.63;12.25;;;7.70;60.70;;;;;;349741;28;967;-58
2023/12/20 00:43:42;;;;;;;16.23;12.30;;;7.70;60.80;;;;;;349702;28;1260;-57
2023/12/20 00:43:53;;;;;;;16.15;12.65;;;7.70;60.70;;;;;;349606;28;1427;-58
2023/12/20 00:44:03;;;;;;;16.02;12.80;;;7.70;60.70;;;;;;349732;28;887;-59
2023/12/20 00:44:14;;;;;;;15.70;12.70;;;7.70;60.70;;;;;;349767;28;858;-58
2023/12/20 00:44:25;;;;;;;17.52;12.73;;;7.70;60.70;;;;;;349754;28;817;-58
2023/12/20 00:44:36;;;;;;;17.45;12.68;;;7.70;60.60;;;;;;349622;28;1074;-58
2023/12/20 00:44:46;;;;;;;17.48;12.80;;;7.70;60.60;;;;;;349746;28;837;-58
2023/12/20 00:44:58;;;;;;;15.45;12.60;;;7.70;60.60;;;;;;349668;28;1121;-57
2023/12/20 00:45:09;;;;;;;15.02;12.63;;;7.70;60.70;;;;;;349721;28;1486;-58
2023/12/20 00:45:20;;;;;;;15.88;12.73;;;7.70;60.70;;;;;;349588;28;1444;-57
2023/12/20 00:45:30;;;;;;;15.95;12.73;;;7.70;60.70;;;;;;349747;28;837;-57
2023/12/20 00:45:41;;;;;;;15.27;12.57;;;7.70;60.70;;;;;;349686;28;1099;-56
2023/12/20 00:45:52;;;;;;;14.38;12.48;;;7.70;60.70;;;;;;349722;28;1075;-57
2023/12/20 00:46:03;;;;;;;14.65;12.57;;;7.70;60.70;;;;;;349657;28;1357;-56
2023/12/20 00:46:14;;;;;;;15.23;12.50;;;7.70;60.70;;;;;;349686;28;967;-58
2023/12/20 00:46:24;;;;;;;15.38;12.18;;;7.70;60.80;;;;;;349719;28;1093;-57
2023/12/20 00:46:35;;;;;;;16.42;12.25;;;7.70;60.80;;;;;;349725;28;845;-57
2023/12/20 00:46:46;;;;;;;16.17;12.50;;;7.70;60.80;;;;;;349606;28;1082;-56
2023/12/20 00:46:57;;;;;;;15.88;12.93;;;7.70;60.80;;;;;;349724;28;790;-57
2023/12/20 00:47:08;;;;;;;15.23;12.52;;;7.70;60.80;;;;;;349661;28;1142;-58
2023/12/20 00:47:19;;;;;;;15.93;11.93;;;7.70;60.90;;;;;;349696;28;1123;-58
2023/12/20 00:47:30;;;;;;;16.17;11.90;;;7.70;60.90;;;;;;349628;28;1051;-57
2023/12/20 00:47:41;;;;;;;17.45;12.13;;;7.70;60.90;;;;;;349721;28;865;-58
2023/12/20 00:47:52;;;;;;;17.50;12.32;;;7.70;60.90;;;;;;349724;28;899;-56
2023/12/20 00:48:03;;;;;;;16.15;12.38;;;7.70;60.90;;;;;;349605;28;1027;-57
2023/12/20 00:48:13;;;;;;;15.23;12.23;;;7.70;60.80;;;;;;349659;28;1859;-59
2023/12/20 00:48:26;;;;;;;14.50;11.95;;;7.70;60.80;;;;;;349751;28;826;-58
2023/12/20 00:48:37;;;;;;;15.18;11.88;;;7.70;60.90;;;;;;349659;28;945;-58
2023/12/20 00:48:48;;;;;;;16.58;12.35;;;7.70;60.80;;;;;;349753;28;1097;-56
2023/12/20 00:48:59;;;;;;;16.47;12.40;;;7.70;60.90;;;;;;349717;28;1093;-58
2023/12/20 00:49:09;;;;;;;16.58;12.55;;;7.70;60.90;;;;;;349591;28;1199;-57
2023/12/20 00:49:20;;;;;;;15.73;12.45;;;7.70;60.90;;;;;;349721;28;1039;-57
2023/12/20 00:49:31;;;;;;;15.50;12.32;;;7.70;61.00;;;;;;349708;28;979;-57
2023/12/20 00:49:42;;;;;;;15.18;12.23;;;7.70;61.00;;;;;;349596;28;1177;-57
2023/12/20 00:49:52;;;;;;;15.80;12.37;;;7.70;61.00;;;;;;349702;28;1019;-57
2023/12/20 00:50:03;;;;;;;16.02;12.48;;;7.60;61.00;;;;;;349734;28;1078;-56
2023/12/20 00:50:14;;;;;;;16.33;12.77;;;7.70;61.10;;;;;;349581;28;939;-57
2023/12/20 00:50:25;;;;;;;17.02;12.98;;;7.60;61.10;;;;;;349740;28;947;-56
2023/12/20 00:50:36;;;;;;;17.30;13.18;;;7.70;61.10;;;;;;349697;28;1062;-57
2023/12/20 00:50:47;;;;;;;16.95;12.93;;;7.60;61.10;;;;;;349643;28;1579;-59
2023/12/20 00:50:57;;;;;;;16.20;13.05;;;7.60;61.10;;;;;;349731;28;891;-56
2023/12/20 00:51:08;;;;;;;15.00;12.87;;;7.60;61.10;;;;;;349729;28;1019;-57
2023/12/20 00:51:19;;;;;;;15.80;13.13;;;7.60;61.10;;;;;;349587;28;1083;-57
2023/12/20 00:51:30;;;;;;;15.80;12.85;;;7.60;61.20;;;;;;349722;28;1133;-58
2023/12/20 00:51:40;;;;;;;15.63;12.48;;;7.60;61.20;;;;;;349603;28;1223;-58
2023/12/20 00:51:52;;;;;;;15.00;12.25;;;7.60;61.20;;;;;;349678;28;1123;-57
2023/12/20 00:52:03;;;;;;;14.95;12.30;;;7.60;61.30;;;;;;349697;28;1046;-57
2023/12/20 00:52:14;;;;;;;15.30;12.40;;;7.60;61.30;;;;;;349705;28;865;-58
2023/12/20 00:52:25;;;;;;;15.30;12.57;;;7.60;61.30;;;;;;349584;28;1027;-58
2023/12/20 00:52:36;;;;;;;15.88;12.52;;;7.60;61.30;;;;;;349754;28;899;-57
2023/12/20 00:52:46;;;;;;;16.17;12.38;;;7.60;61.30;;;;;;349697;28;1109;-57
2023/12/20 00:52:57;;;;;;;16.58;12.57;;;7.60;61.30;;;;;;349634;28;1149;-58
2023/12/20 00:53:08;;;;;;;15.80;12.73;;;7.60;61.40;;;;;;349629;28;1626;-57
2023/12/20 00:53:19;;;;;;;14.57;12.75;;;7.60;61.30;;;;;;349684;28;1020;-57
2023/12/20 00:53:29;;;;;;;14.50;12.43;;;7.60;61.20;;;;;;349603;28;967;-56
2023/12/20 00:53:40;;;;;;;15.80;13.13;;;7.60;61.20;;;;;;349683;28;991;-56
2023/12/20 00:53:54;;;;;;;15.48;12.90;;;7.60;61.20;;;;;;349711;28;1627;-57
2023/12/20 00:54:05;;;;;;;15.77;13.13;;;7.60;61.20;;;;;;349585;28;975;-58
2023/12/20 00:54:16;;;;;;;16.40;12.93;;;7.60;61.20;;;;;;349656;28;1079;-58
2023/12/20 00:54:27;;;;;;;16.33;13.00;;;7.60;61.20;;;;;;349649;28;983;-58
2023/12/20 00:54:37;;;;;;;15.32;12.93;;;7.60;61.30;;;;;;349699;28;1043;-58
2023/12/20 00:54:48;;;;;;;15.23;12.97;;;7.60;61.30;;;;;;349712;28;1102;-57
2023/12/20 00:54:59;;;;;;;16.63;12.77;;;7.60;61.30;;;;;;349608;28;2078;-57
2023/12/20 00:55:10;;;;;;;16.92;12.85;;;7.60;61.30;;;;;;349679;28;880;-57
2023/12/20 00:55:21;;;;;;;17.53;13.37;;;7.60;61.30;;;;;;349661;28;1154;-57
2023/12/20 00:55:31;;;;;;;16.48;13.65;;;7.60;61.30;;;;;;349616;28;1073;-59
2023/12/20 00:55:44;;;;;;;14.98;13.13;;;7.60;61.30;;;;;;349754;28;956;-59
2023/12/20 00:55:55;;;;;;;14.57;13.00;;;7.60;61.30;;;;;;349638;28;1129;-57
2023/12/20 00:56:06;;;;;;;15.77;13.48;;;7.60;61.30;;;;;;349610;28;1340;-57
2023/12/20 00:56:17;;;;;;;17.75;13.90;;;7.60;61.30;;;;;;349681;28;1098;-58
2023/12/20 00:56:27;;;;;;;17.47;13.57;;;7.50;61.40;;;;;;349696;28;836;-59
2023/12/20 00:56:38;;;;;;;17.67;13.43;;;7.50;61.40;;;;;;349660;28;907;-56
2023/12/20 00:56:49;;;;;;;15.45;13.20;;;7.50;61.40;;;;;;349708;28;840;-58
2023/12/20 00:57:00;;;;;;;15.82;13.50;;;7.50;61.50;;;;;;349736;28;1015;-57
2023/12/20 00:57:10;;;;;;;15.80;13.47;;;7.50;61.50;;;;;;349617;28;1028;-58
2023/12/20 00:57:21;;;;;;;16.77;13.60;;;7.50;61.60;;;;;;349703;28;1165;-58
2023/12/20 00:57:32;;;;;;;17.40;13.68;;;7.50;61.60;;;;;;348235;28;975;-57